Time;durP1;ratioP1;P1;durP2;ratioP2;P2;SDS_P1;SDS_P2;PMS_P1;PMS_P2;Temp;Humidity;BMP_temperature;BMP_pressure;BME280_temperature;BME280_humidity;BME280_pressure;Samples;Min_cycle;Max_cycle;Signal;HPM_P1;HPM_P2
2022/11/13 00:01:32;;;;;;;;;;;20.30;47.50;;;;;;8330661;28;19917;-42
2022/11/13 00:05:32;;;;;;;;;;;20.30;47.60;;;;;;8330069;28;19918;-42
2022/11/13 00:09:33;;;;;;;;;;;20.20;47.50;;;;;;8329538;28;19979;-42
2022/11/13 00:13:33;;;;;;;;;;;20.20;47.50;;;;;;8330147;28;19917;-42
2022/11/13 00:17:34;;;;;;;;;;;20.20;47.50;;;;;;8330359;28;20404;-42
2022/11/13 00:21:34;;;;;;;;;;;20.20;47.50;;;;;;8329514;28;20398;-42
2022/11/13 00:25:35;;;;;;;;;;;20.10;47.50;;;;;;8330188;28;19928;-42
2022/11/13 00:29:35;;;;;;;;;;;20.10;48.00;;;;;;8329753;28;19925;-42
2022/11/13 00:33:36;;;;;;;;;;;20.10;47.50;;;;;;8329428;28;20362;-42
2022/11/13 00:37:36;;;;;;;;;;;20.10;47.60;;;;;;8359125;28;19923;-42
2022/11/13 00:41:37;;;;;;;;;;;20.10;47.60;;;;;;8332912;28;19917;-42
2022/11/13 00:45:37;;;;;;;;;;;20.10;47.60;;;;;;8329245;28;20297;-42
2022/11/13 00:49:37;;;;;;;;;;;20.00;47.60;;;;;;8329597;28;20004;-41
2022/11/13 00:53:38;;;;;;;;;;;20.00;47.60;;;;;;8330071;28;19917;-42
2022/11/13 00:57:38;;;;;;;;;;;20.00;47.60;;;;;;8329367;28;19913;-41
2022/11/13 01:01:39;;;;;;;;;;;20.00;47.60;;;;;;8329729;28;20378;-40
2022/11/13 01:05:40;;;;;;;;;;;20.00;47.60;;;;;;8329495;28;19917;-42
2022/11/13 01:09:41;;;;;;;;;;;20.00;47.60;;;;;;8327456;28;20298;-42
2022/11/13 01:13:42;;;;;;;;;;;19.90;47.60;;;;;;8329523;28;19918;-42
2022/11/13 01:17:43;;;;;;;;;;;20.00;47.80;;;;;;8335232;28;20345;-42
2022/11/13 01:21:43;;;;;;;;;;;19.90;47.60;;;;;;8334700;28;19924;-43
2022/11/13 01:25:43;;;;;;;;;;;19.90;47.60;;;;;;8335012;28;19956;-42
2022/11/13 01:29:44;;;;;;;;;;;19.90;47.60;;;;;;8334968;28;19925;-42
2022/11/13 01:33:45;;;;;;;;;;;19.90;47.70;;;;;;8334400;28;19921;-42
2022/11/13 01:37:46;;;;;;;;;;;19.80;47.60;;;;;;8335012;28;19914;-42
2022/11/13 01:41:46;;;;;;;;;;;19.80;47.60;;;;;;8334533;28;20445;-43
2022/11/13 01:46:00;;;;;;;;;;;19.80;47.70;;;;;;8334089;28;19924;-42
2022/11/13 01:50:01;;;;;;;;;;;19.80;48.10;;;;;;8334485;28;19929;-42
2022/11/13 01:54:03;;;;;;;;;;;19.80;47.60;;;;;;8334161;28;19921;-42
2022/11/13 01:58:04;;;;;;;;;;;19.80;47.60;;;;;;8334058;28;19913;-42
2022/11/13 02:02:05;;;;;;;;;;;19.80;47.70;;;;;;8322130;28;20005;-42
2022/11/13 02:06:06;;;;;;;;;;;19.80;47.70;;;;;;8321577;28;19917;-42
2022/11/13 02:10:07;;;;;;;;;;;19.70;47.60;;;;;;8333196;28;19995;-42
2022/11/13 02:14:08;;;;;;;;;;;19.70;47.60;;;;;;8333642;28;20046;-42
2022/11/13 02:18:09;;;;;;;;;;;19.70;47.60;;;;;;8333688;28;19920;-43
2022/11/13 02:22:16;;;;;;;;;;;19.70;47.60;;;;;;8332970;28;19921;-42
2022/11/13 02:26:19;;;;;;;;;;;19.70;47.60;;;;;;8333316;28;19963;-42
2022/11/13 02:30:26;;;;;;;;;;;19.70;47.70;;;;;;8332635;28;19925;-42
2022/11/13 02:34:27;;;;;;;;;;;19.70;47.70;;;;;;8332930;28;19917;-42
2022/11/13 02:38:28;;;;;;;;;;;19.70;47.70;;;;;;8332993;28;20354;-42
2022/11/13 02:42:28;;;;;;;;;;;19.60;47.60;;;;;;8332507;28;19917;-43
2022/11/13 02:46:28;;;;;;;;;;;19.60;47.60;;;;;;8332772;28;20453;-42
2022/11/13 02:50:29;;;;;;;;;;;19.60;47.70;;;;;;8332247;28;19932;-42
2022/11/13 02:54:30;;;;;;;;;;;19.60;47.70;;;;;;8331831;28;19924;-42
2022/11/13 02:58:30;;;;;;;;;;;19.60;47.60;;;;;;8332400;28;20003;-42
2022/11/13 03:02:31;;;;;;;;;;;19.60;47.60;;;;;;8332131;28;19924;-42
2022/11/13 03:06:31;;;;;;;;;;;19.60;47.70;;;;;;8331365;28;19935;-42
2022/11/13 03:10:32;;;;;;;;;;;19.50;47.70;;;;;;8331654;28;19926;-42
2022/11/13 03:14:32;;;;;;;;;;;19.50;47.60;;;;;;8331941;28;19921;-42
2022/11/13 03:18:32;;;;;;;;;;;19.50;47.60;;;;;;8331360;28;19917;-42
2022/11/13 03:22:33;;;;;;;;;;;19.50;47.60;;;;;;8331277;28;19917;-42
2022/11/13 03:26:33;;;;;;;;;;;19.50;47.60;;;;;;8331475;28;20382;-42
2022/11/13 03:30:34;;;;;;;;;;;19.50;47.60;;;;;;8330707;28;19925;-42
2022/11/13 03:34:34;;;;;;;;;;;19.50;47.60;;;;;;8331004;28;20000;-42
2022/11/13 03:38:35;;;;;;;;;;;19.50;47.60;;;;;;8330994;28;19925;-42
2022/11/13 03:42:35;;;;;;;;;;;19.50;47.70;;;;;;8330433;28;19921;-42
2022/11/13 03:46:36;;;;;;;;;;;19.50;47.70;;;;;;8330759;28;19921;-42
2022/11/13 03:50:36;;;;;;;;;;;19.50;47.60;;;;;;8330536;28;19932;-42
2022/11/13 03:54:37;;;;;;;;;;;19.50;47.70;;;;;;8329951;28;19913;-42
2022/11/13 03:58:37;;;;;;;;;;;19.40;47.60;;;;;;8331021;28;20281;-42
2022/11/13 04:02:38;;;;;;;;;;;19.40;47.60;;;;;;8330364;28;20270;-42
2022/11/13 04:06:38;;;;;;;;;;;19.40;47.60;;;;;;8329746;28;20055;-42
2022/11/13 04:10:39;;;;;;;;;;;19.40;47.60;;;;;;8330195;28;20021;-42
2022/11/13 04:14:39;;;;;;;;;;;19.40;47.60;;;;;;8330196;28;19917;-42
2022/11/13 04:18:40;;;;;;;;;;;19.40;47.70;;;;;;8330223;28;20366;-42
2022/11/13 04:22:40;;;;;;;;;;;19.40;47.60;;;;;;8330039;28;20358;-43
2022/11/13 04:26:40;;;;;;;;;;;19.40;47.60;;;;;;8330068;28;20427;-42
2022/11/13 04:30:41;;;;;;;;;;;19.50;47.60;;;;;;8329634;28;19917;-42
2022/11/13 04:34:41;;;;;;;;;;;19.50;47.60;;;;;;8329871;28;19913;-42
2022/11/13 04:38:42;;;;;;;;;;;19.50;47.50;;;;;;8330330;28;19986;-42
2022/11/13 04:42:48;;;;;;;;;;;19.60;47.60;;;;;;8329286;28;20289;-42
2022/11/13 04:46:49;;;;;;;;;;;19.60;47.50;;;;;;8329626;28;19917;-42
2022/11/13 04:50:49;;;;;;;;;;;19.70;47.50;;;;;;8332518;28;19913;-42
2022/11/13 04:54:50;;;;;;;;;;;19.60;47.40;;;;;;8335865;28;20337;-42
2022/11/13 04:58:50;;;;;;;;;;;19.70;47.50;;;;;;8336059;28;19918;-42
2022/11/13 05:02:50;;;;;;;;;;;19.70;47.40;;;;;;8335977;28;19924;-42
2022/11/13 05:06:51;;;;;;;;;;;19.80;47.40;;;;;;8335106;28;19960;-42
2022/11/13 05:10:51;;;;;;;;;;;19.80;47.30;;;;;;8335755;28;19913;-42
2022/11/13 05:14:52;;;;;;;;;;;19.80;47.30;;;;;;8335658;28;19917;-41
2022/11/13 05:18:52;;;;;;;;;;;19.80;47.30;;;;;;8335102;28;19963;-42
2022/11/13 05:22:53;;;;;;;;;;;19.90;47.40;;;;;;8335356;28;19986;-42
2022/11/13 05:26:53;;;;;;;;;;;19.90;47.30;;;;;;8334918;28;20393;-42
2022/11/13 05:31:01;;;;;;;;;;;19.90;47.30;;;;;;8334413;28;19949;-42
2022/11/13 05:35:01;;;;;;;;;;;19.90;47.30;;;;;;8334853;28;20000;-42
2022/11/13 05:39:02;;;;;;;;;;;20.00;47.20;;;;;;8334832;28;20358;-42
2022/11/13 05:43:02;;;;;;;;;;;20.00;47.20;;;;;;8334171;28;19922;-42
2022/11/13 05:47:03;;;;;;;;;;;20.00;47.20;;;;;;8334303;28;20405;-42
2022/11/13 05:51:04;;;;;;;;;;;20.00;47.20;;;;;;8334229;28;19913;-42
2022/11/13 05:55:05;;;;;;;;;;;20.10;47.20;;;;;;8333886;28;20355;-42
2022/11/13 05:59:06;;;;;;;;;;;20.10;47.10;;;;;;8334021;28;19921;-42
2022/11/13 06:03:06;;;;;;;;;;;20.10;47.10;;;;;;8333726;28;19913;-42
2022/11/13 06:07:07;;;;;;;;;;;20.10;47.10;;;;;;8333192;28;19931;-42
2022/11/13 06:11:09;;;;;;;;;;;20.20;47.10;;;;;;8333589;28;20262;-42
2022/11/13 06:15:09;;;;;;;;;;;20.20;47.10;;;;;;8333427;28;19997;-42
2022/11/13 06:19:10;;;;;;;;;;;20.20;47.00;;;;;;8333685;28;19924;-41
2022/11/13 06:23:10;;;;;;;;;;;20.20;47.00;;;;;;8333640;28;19917;-42
2022/11/13 06:27:11;;;;;;;;;;;20.20;47.00;;;;;;8332740;28;19921;-42
2022/11/13 06:31:13;;;;;;;;;;;20.20;46.90;;;;;;8333073;28;19913;-42
2022/11/13 06:35:13;;;;;;;;;;;20.30;46.90;;;;;;8333111;28;19921;-43
2022/11/13 06:39:14;;;;;;;;;;;20.30;46.90;;;;;;8332502;28;19949;-41
2022/11/13 06:43:14;;;;;;;;;;;20.30;46.90;;;;;;8332953;28;19953;-41
2022/11/13 06:47:15;;;;;;;;;;;20.30;46.90;;;;;;8332599;28;20008;-41
2022/11/13 06:51:22;;;;;;;;;;;20.30;46.80;;;;;;8332013;28;19921;-41
2022/11/13 06:55:23;;;;;;;;;;;20.30;46.70;;;;;;8332513;28;19913;-41
2022/11/13 06:59:23;;;;;;;;;;;20.40;46.80;;;;;;8332096;28;20389;-41
2022/11/13 07:03:25;;;;;;;;;;;20.40;46.80;;;;;;8331596;28;19913;-41
2022/11/13 07:07:25;;;;;;;;;;;20.40;46.70;;;;;;8331993;28;19935;-41
2022/11/13 07:11:26;;;;;;;;;;;20.40;46.80;;;;;;8331713;28;19920;-41
2022/11/13 07:15:26;;;;;;;;;;;20.40;46.80;;;;;;8331112;28;19939;-41
2022/11/13 07:19:27;;;;;;;;;;;20.40;46.70;;;;;;8331569;28;20392;-41
2022/11/13 07:23:27;;;;;;;;;;;20.40;46.70;;;;;;8331523;28;19945;-41
2022/11/13 07:27:28;;;;;;;;;;;20.50;46.80;;;;;;8330879;28;19925;-41
2022/11/13 07:31:28;;;;;;;;;;;20.50;46.70;;;;;;8331373;28;19920;-42
2022/11/13 07:35:29;;;;;;;;;;;20.50;46.70;;;;;;8331466;28;20011;-41
2022/11/13 07:39:29;;;;;;;;;;;20.50;46.70;;;;;;8330521;28;20016;-42
2022/11/13 07:43:30;;;;;;;;;;;20.50;46.60;;;;;;8331269;28;19917;-42
2022/11/13 07:47:30;;;;;;;;;;;20.50;46.60;;;;;;8330710;28;19921;-41
2022/11/13 07:51:31;;;;;;;;;;;20.50;46.50;;;;;;8330408;28;20376;-42
2022/11/13 07:55:32;;;;;;;;;;;20.60;46.50;;;;;;8331098;28;20008;-41
2022/11/13 07:59:32;;;;;;;;;;;20.60;46.60;;;;;;8330481;28;19943;-41
2022/11/13 08:03:33;;;;;;;;;;;20.60;46.50;;;;;;8330188;28;19948;-41
2022/11/13 08:07:33;;;;;;;;;;;20.60;46.50;;;;;;8310977;28;19925;-42
2022/11/13 08:11:34;;;;;;;;;;;20.60;46.50;;;;;;8330472;28;20476;-43
2022/11/13 08:15:34;;;;;;;;;;;20.60;46.40;;;;;;8330085;28;19960;-42
2022/11/13 08:19:35;;;;;;;;;;;20.70;46.50;;;;;;8330261;28;19917;-41
2022/11/13 08:23:35;;;;;;;;;;;20.70;46.40;;;;;;8331132;28;19925;-42
2022/11/13 08:27:37;;;;;;;;;;;20.70;46.30;;;;;;8336350;28;19925;-42
2022/11/13 08:31:37;;;;;;;;;;;20.70;46.30;;;;;;8336803;28;19967;-42
2022/11/13 08:35:37;;;;;;;;;;;20.70;46.30;;;;;;8336882;28;19917;-42
2022/11/13 08:39:38;;;;;;;;;;;20.70;46.30;;;;;;8336067;28;19917;-42
2022/11/13 08:43:38;;;;;;;;;;;20.70;46.20;;;;;;8336474;28;20370;-42
2022/11/13 08:47:39;;;;;;;;;;;20.70;46.20;;;;;;8336116;28;19921;-42
2022/11/13 08:51:39;;;;;;;;;;;20.70;46.20;;;;;;8335668;28;19917;-42
2022/11/13 08:55:40;;;;;;;;;;;20.80;46.20;;;;;;8336243;28;19913;-42
2022/11/13 08:59:40;;;;;;;;;;;20.80;46.30;;;;;;8335953;28;19971;-43
2022/11/13 09:03:41;;;;;;;;;;;20.80;46.20;;;;;;8335412;28;19917;-42
2022/11/13 09:07:41;;;;;;;;;;;20.80;46.20;;;;;;8335663;28;20042;-42
2022/11/13 09:11:42;;;;;;;;;;;20.80;46.20;;;;;;8335436;28;19913;-42
2022/11/13 09:15:42;;;;;;;;;;;20.80;46.10;;;;;;8335136;28;19913;-42
2022/11/13 09:19:43;;;;;;;;;;;20.80;46.20;;;;;;8335222;28;19971;-41
2022/11/13 09:23:43;;;;;;;;;;;20.80;46.10;;;;;;8335218;28;20361;-41
2022/11/13 09:27:50;;;;;;;;;;;20.80;46.10;;;;;;8334517;28;20286;-41
2022/11/13 09:31:50;;;;;;;;;;;20.80;46.10;;;;;;8334976;28;19949;-42
2022/11/13 09:35:51;;;;;;;;;;;20.90;46.10;;;;;;8334564;28;19920;-42
2022/11/13 09:39:52;;;;;;;;;;;20.90;46.00;;;;;;8334304;28;19917;-42
2022/11/13 09:43:53;;;;;;;;;;;20.90;46.00;;;;;;8334470;28;19968;-41
2022/11/13 09:47:55;;;;;;;;;;;20.90;46.00;;;;;;8334431;28;19948;-41
2022/11/13 09:51:57;;;;;;;;;;;20.90;45.90;;;;;;8333969;28;19917;-41
2022/11/13 09:56:10;;;;;;;;;;;21.00;46.00;;;;;;8334341;28;19952;-42
2022/11/13 10:00:16;;;;;;;;;;;21.00;45.90;;;;;;8333877;28;19924;-41
2022/11/13 10:04:21;;;;;;;;;;;21.00;45.90;;;;;;8333973;28;19917;-42
2022/11/13 10:08:41;;;;;;;;;;;21.00;45.90;;;;;;8333912;28;19932;-42
2022/11/13 10:12:43;;;;;;;;;;;21.00;45.90;;;;;;8332822;28;19924;-42
2022/11/13 10:16:46;;;;;;;;;;;21.00;45.90;;;;;;8333755;28;19918;-42
2022/11/13 10:20:47;;;;;;;;;;;21.00;45.80;;;;;;8333418;28;19917;-42
2022/11/13 10:24:49;;;;;;;;;;;21.00;45.80;;;;;;8333085;28;20016;-42
2022/11/13 10:29:09;;;;;;;;;;;21.10;45.80;;;;;;8333195;28;20356;-42
2022/11/13 10:33:13;;;;;;;;;;;21.10;45.80;;;;;;8333123;28;19917;-42
2022/11/13 10:37:16;;;;;;;;;;;21.10;45.80;;;;;;8332584;28;19917;-42
2022/11/13 10:41:18;;;;;;;;;;;21.10;45.80;;;;;;8332945;28;20330;-42
2022/11/13 10:45:19;;;;;;;;;;;21.10;45.80;;;;;;8332182;28;20378;-42
2022/11/13 10:49:27;;;;;;;;;;;21.10;45.80;;;;;;8331429;28;19925;-45
2022/11/13 10:53:36;;;;;;;;;;;21.10;45.60;;;;;;8332425;28;19948;-45
2022/11/13 10:57:36;;;;;;;;;;;21.10;45.70;;;;;;8331822;28;19939;-43
2022/11/13 11:01:37;;;;;;;;;;;21.10;45.70;;;;;;8332042;28;19913;-44
2022/11/13 11:05:38;;;;;;;;;;;21.10;45.70;;;;;;8330628;28;19963;-43
2022/11/13 11:09:40;;;;;;;;;;;21.20;45.70;;;;;;8329806;28;19925;-43
2022/11/13 11:13:40;;;;;;;;;;;21.20;45.70;;;;;;8331555;28;20384;-43
2022/11/13 11:17:45;;;;;;;;;;;21.20;45.60;;;;;;8331260;28;19917;-43
2022/11/13 11:21:47;;;;;;;;;;;21.20;45.60;;;;;;8331057;28;19913;-43
2022/11/13 11:25:55;;;;;;;;;;;21.30;45.60;;;;;;8331207;28;19917;-44
2022/11/13 11:30:16;;;;;;;;;;;21.30;45.70;;;;;;8330711;28;19932;-44
2022/11/13 11:34:40;;;;;;;;;;;21.30;45.70;;;;;;8330728;28;19943;-43
2022/11/13 11:38:47;;;;;;;;;;;21.40;45.80;;;;;;8331020;28;19940;-43
2022/11/13 11:43:07;;;;;;;;;;;21.40;45.70;;;;;;8330047;28;20329;-43
2022/11/13 11:47:15;;;;;;;;;;;21.40;45.70;;;;;;8320067;28;19924;-42
2022/11/13 11:51:22;;;;;;;;;;;21.40;45.80;;;;;;8330789;28;19917;-42
2022/11/13 11:55:33;;;;;;;;;;;21.40;45.90;;;;;;8330428;28;19924;-41
2022/11/13 11:59:59;;;;;;;;;;;21.40;45.70;;;;;;8330110;28;19913;-42
2022/11/13 12:04:15;;;;;;;;;;;21.40;45.90;;;;;;8326602;28;20333;-41
2022/11/13 12:08:34;;;;;;;;;;;21.40;45.80;;;;;;8329947;28;19929;-41
2022/11/13 12:13:06;;;;;;;;;;;21.50;45.90;;;;;;8325082;28;21359;-43
2022/11/13 12:17:26;;;;;;;;;;;21.50;45.80;;;;;;8236576;28;19929;-41
2022/11/13 12:21:50;;;;;;;;;;;21.50;45.80;;;;;;8327699;28;20297;-41
2022/11/13 12:25:59;;;;;;;;;;;21.50;45.80;;;;;;8278142;28;19941;-41
2022/11/13 12:29:59;;;;;;;;;;;21.60;45.90;;;;;;8321449;28;19929;-40
2022/11/13 12:34:02;;;;;;;;;;;21.60;45.90;;;;;;8327148;28;19963;-41
2022/11/13 12:38:06;;;;;;;;;;;21.60;45.90;;;;;;8329561;28;19913;-41
2022/11/13 12:42:18;;;;;;;;;;;21.70;45.80;;;;;;8319528;28;20381;-41
2022/11/13 12:46:20;;;;;;;;;;;21.70;45.90;;;;;;8313591;28;20329;-41
2022/11/13 12:50:22;;;;;;;;;;;21.70;45.70;;;;;;8315901;28;20286;-41
2022/11/13 12:54:26;;;;;;;;;;;21.70;45.80;;;;;;8327931;28;19917;-41
2022/11/13 12:58:28;;;;;;;;;;;21.70;45.80;;;;;;8329877;28;19925;-42
2022/11/13 13:02:33;;;;;;;;;;;21.70;45.90;;;;;;8329603;28;19914;-41
2022/11/13 13:06:41;;;;;;;;;;;21.70;45.80;;;;;;8328832;28;20252;-41
2022/11/13 13:10:42;;;;;;;;;;;21.70;45.80;;;;;;8330313;28;19956;-41
2022/11/13 13:15:03;;;;;;;;;;;21.70;45.80;;;;;;8335223;28;19921;-41
2022/11/13 13:19:21;;;;;;;;;;;21.70;45.80;;;;;;8334912;28;20317;-41
2022/11/13 13:23:27;;;;;;;;;;;21.70;45.80;;;;;;8335232;28;19952;-41
2022/11/13 13:27:28;;;;;;;;;;;21.70;45.70;;;;;;8334954;28;19928;-41
2022/11/13 13:31:43;;;;;;;;;;;21.70;45.70;;;;;;8335156;28;19917;-41
2022/11/13 13:35:43;;;;;;;;;;;21.70;45.60;;;;;;8335381;28;19917;-41
2022/11/13 13:39:53;;;;;;;;;;;21.70;45.60;;;;;;8334241;28;19924;-41
2022/11/13 13:43:58;;;;;;;;;;;21.70;45.60;;;;;;8334845;28;19918;-41
2022/11/13 13:47:59;;;;;;;;;;;21.70;45.60;;;;;;8334836;28;20374;-41
2022/11/13 13:51:59;;;;;;;;;;;21.70;45.60;;;;;;8334009;28;19959;-42
2022/11/13 13:56:01;;;;;;;;;;;21.70;45.50;;;;;;8334127;28;19923;-41
2022/11/13 14:00:02;;;;;;;;;;;21.70;45.50;;;;;;8334092;28;19966;-41
2022/11/13 14:04:03;;;;;;;;;;;21.70;46.00;;;;;;8311569;28;19917;-41
2022/11/13 14:08:14;;;;;;;;;;;21.70;45.40;;;;;;8333711;28;19931;-41
2022/11/13 14:12:19;;;;;;;;;;;21.70;45.40;;;;;;8333346;28;19917;-41
2022/11/13 14:16:20;;;;;;;;;;;21.70;45.40;;;;;;8333588;28;20008;-41
2022/11/13 14:20:20;;;;;;;;;;;21.70;45.40;;;;;;8333591;28;19917;-41
2022/11/13 14:24:23;;;;;;;;;;;21.70;45.40;;;;;;8332555;28;19918;-41
2022/11/13 14:28:26;;;;;;;;;;;21.70;45.40;;;;;;8333367;28;19928;-41
2022/11/13 14:32:31;;;;;;;;;;;21.70;45.40;;;;;;8332923;28;20015;-40
2022/11/13 14:36:32;;;;;;;;;;;21.70;45.40;;;;;;8332405;28;20409;-40
2022/11/13 14:40:34;;;;;;;;;;;21.70;45.40;;;;;;8332737;28;19924;-40
2022/11/13 14:44:35;;;;;;;;;;;21.80;45.40;;;;;;8332804;28;19913;-42
2022/11/13 14:48:35;;;;;;;;;;;21.70;45.30;;;;;;8332367;28;19925;-42
2022/11/13 14:52:36;;;;;;;;;;;21.70;45.30;;;;;;8332507;28;20074;-42
2022/11/13 14:56:38;;;;;;;;;;;21.80;45.40;;;;;;8332327;28;19975;-41
2022/11/13 15:00:38;;;;;;;;;;;21.80;45.40;;;;;;8331869;28;19917;-42
2022/11/13 15:04:39;;;;;;;;;;;21.70;45.20;;;;;;8331984;28;20381;-42
2022/11/13 15:08:39;;;;;;;;;;;21.80;45.30;;;;;;8331937;28;20436;-41
2022/11/13 15:12:40;;;;;;;;;;;21.80;45.30;;;;;;8331092;28;19917;-41
2022/11/13 15:16:41;;;;;;;;;;;21.70;45.20;;;;;;8331559;28;19917;-41
2022/11/13 15:20:42;;;;;;;;;;;21.70;45.30;;;;;;8331399;28;19913;-41
2022/11/13 15:24:42;;;;;;;;;;;21.70;45.20;;;;;;8330844;28;19918;-42
2022/11/13 15:28:42;;;;;;;;;;;21.70;45.20;;;;;;8331565;28;19928;-40
2022/11/13 15:32:43;;;;;;;;;;;21.70;45.20;;;;;;8331060;28;19917;-42
2022/11/13 15:36:44;;;;;;;;;;;21.70;45.20;;;;;;8330464;28;19927;-41
2022/11/13 15:40:45;;;;;;;;;;;21.70;45.30;;;;;;8331070;28;19927;-41
2022/11/13 15:44:46;;;;;;;;;;;21.70;45.40;;;;;;8330875;28;19913;-41
2022/11/13 15:48:48;;;;;;;;;;;21.70;45.90;;;;;;8330590;28;19932;-42
2022/11/13 15:52:50;;;;;;;;;;;21.70;45.50;;;;;;8331151;28;19924;-41
2022/11/13 15:56:51;;;;;;;;;;;21.70;45.30;;;;;;8330802;28;19923;-41
2022/11/13 16:00:51;;;;;;;;;;;21.70;45.30;;;;;;8330030;28;19926;-41
2022/11/13 16:04:53;;;;;;;;;;;21.70;45.40;;;;;;8330424;28;19920;-41
2022/11/13 16:08:53;;;;;;;;;;;21.70;45.30;;;;;;8329171;28;20004;-41
2022/11/13 16:12:54;;;;;;;;;;;21.70;45.40;;;;;;8329918;28;19921;-42
2022/11/13 16:16:54;;;;;;;;;;;21.70;45.30;;;;;;8330410;28;19953;-43
2022/11/13 16:20:55;;;;;;;;;;;21.70;45.30;;;;;;8329874;28;19913;-42
2022/11/13 16:24:55;;;;;;;;;;;21.70;45.30;;;;;;8329834;28;20294;-40
2022/11/13 16:28:56;;;;;;;;;;;21.70;45.20;;;;;;8329870;28;20382;-40
2022/11/13 16:32:56;;;;;;;;;;;21.70;45.20;;;;;;8330011;28;19921;-40
2022/11/13 16:36:57;;;;;;;;;;;21.70;45.20;;;;;;8329310;28;19921;-40
2022/11/13 16:40:57;;;;;;;;;;;21.70;45.30;;;;;;8329536;28;20004;-40
2022/11/13 16:44:57;;;;;;;;;;;21.70;45.20;;;;;;8310456;28;19923;-40
2022/11/13 16:48:58;;;;;;;;;;;21.70;45.20;;;;;;8324935;28;19932;-41
2022/11/13 16:53:00;;;;;;;;;;;21.70;45.20;;;;;;8312301;28;19979;-40
2022/11/13 16:57:00;;;;;;;;;;;21.70;45.20;;;;;;8328541;28;19923;-41
2022/11/13 17:01:00;;;;;;;;;;;21.70;45.30;;;;;;8346691;28;19917;-42
2022/11/13 17:05:01;;;;;;;;;;;21.70;45.20;;;;;;8325433;28;19971;-42
2022/11/13 17:09:02;;;;;;;;;;;21.70;45.20;;;;;;8312675;28;19978;-41
2022/11/13 17:13:03;;;;;;;;;;;21.70;45.30;;;;;;8325269;28;19924;-41
2022/11/13 17:17:04;;;;;;;;;;;21.70;45.20;;;;;;8324389;28;19917;-41
2022/11/13 17:21:05;;;;;;;;;;;21.60;45.20;;;;;;8317206;28;19971;-41
2022/11/13 17:25:06;;;;;;;;;;;21.70;45.20;;;;;;8314118;28;20376;-40
2022/11/13 17:29:06;;;;;;;;;;;21.70;45.30;;;;;;8344765;28;20382;-42
2022/11/13 17:33:06;;;;;;;;;;;21.70;45.30;;;;;;8329238;28;19921;-40
2022/11/13 17:37:07;;;;;;;;;;;21.60;45.20;;;;;;8326477;28;20366;-42
2022/11/13 17:41:09;;;;;;;;;;;21.60;45.30;;;;;;8305339;28;20009;-41
2022/11/13 17:45:10;;;;;;;;;;;21.70;45.40;;;;;;8304238;28;20259;-42
2022/11/13 17:49:10;;;;;;;;;;;21.60;45.30;;;;;;8328312;28;19925;-41
2022/11/13 17:53:12;;;;;;;;;;;21.60;45.20;;;;;;8310032;28;20388;-41
2022/11/13 17:57:13;;;;;;;;;;;21.60;45.30;;;;;;8319353;28;20358;-41
2022/11/13 18:01:15;;;;;;;;;;;21.60;45.30;;;;;;8323554;28;19921;-41
2022/11/13 18:05:15;;;;;;;;;;;21.60;45.20;;;;;;8303309;28;19960;-41
2022/11/13 18:09:15;;;;;;;;;;;21.60;45.30;;;;;;8318068;28;19926;-41
2022/11/13 18:13:16;;;;;;;;;;;21.60;45.20;;;;;;8324089;28;19921;-41
2022/11/13 18:17:17;;;;;;;;;;;21.60;45.20;;;;;;8333690;28;20328;-42
2022/11/13 18:21:19;;;;;;;;;;;21.60;45.20;;;;;;8328730;28;20522;-41
2022/11/13 18:25:20;;;;;;;;;;;21.60;45.20;;;;;;8322735;28;19922;-41
2022/11/13 18:29:20;;;;;;;;;;;21.60;45.20;;;;;;8325081;28;20397;-39
2022/11/13 18:33:21;;;;;;;;;;;21.60;45.20;;;;;;8320063;28;20401;-41
2022/11/13 18:37:21;;;;;;;;;;;21.60;44.20;;;;;;8300620;28;19932;-40
2022/11/13 18:41:22;;;;;;;;;;;21.50;45.00;;;;;;8303112;28;19964;-42
2022/11/13 18:45:22;;;;;;;;;;;21.60;45.10;;;;;;8313307;28;19983;-42
2022/11/13 18:49:23;;;;;;;;;;;21.50;45.10;;;;;;8306608;28;19948;-41
2022/11/13 18:53:23;;;;;;;;;;;21.60;45.00;;;;;;8327948;28;19971;-42
2022/11/13 18:57:24;;;;;;;;;;;21.60;44.80;;;;;;8313967;28;20027;-41
2022/11/13 19:01:26;;;;;;;;;;;21.70;44.80;;;;;;8310831;28;20271;-41
2022/11/13 19:05:26;;;;;;;;;;;21.70;44.70;;;;;;8318472;28;20283;-40
2022/11/13 19:09:27;;;;;;;;;;;21.70;44.80;;;;;;8330162;28;20014;-42
2022/11/13 19:13:27;;;;;;;;;;;21.70;44.80;;;;;;8330371;28;20358;-41
2022/11/13 19:17:28;;;;;;;;;;;21.80;44.90;;;;;;8327642;28;19917;-42
2022/11/13 19:21:29;;;;;;;;;;;21.80;44.80;;;;;;8309580;28;19917;-42
2022/11/13 19:25:30;;;;;;;;;;;21.80;44.60;;;;;;8328734;28;19920;-42
2022/11/13 19:29:30;;;;;;;;;;;21.70;45.00;;;;;;8328655;28;20271;-42
2022/11/13 19:33:31;;;;;;;;;;;21.70;45.00;;;;;;8328898;28;19913;-42
2022/11/13 19:37:31;;;;;;;;;;;21.80;44.90;;;;;;8329588;28;19917;-41
2022/11/13 19:41:32;;;;;;;;;;;21.80;44.80;;;;;;8331234;28;20274;-42
2022/11/13 19:45:34;;;;;;;;;;;21.80;44.70;;;;;;8330901;28;20421;-42
2022/11/13 19:49:38;;;;;;;;;;;21.80;44.80;;;;;;8330795;28;19925;-41
2022/11/13 19:53:44;;;;;;;;;;;21.80;44.70;;;;;;8331049;28;20290;-41
2022/11/13 19:57:45;;;;;;;;;;;21.80;44.80;;;;;;8330468;28;19917;-43
2022/11/13 20:01:45;;;;;;;;;;;21.80;44.80;;;;;;8331085;28;19917;-42
2022/11/13 20:05:50;;;;;;;;;;;21.80;44.70;;;;;;8329224;28;19917;-42
2022/11/13 20:09:50;;;;;;;;;;;21.80;44.60;;;;;;8329908;28;19931;-41
2022/11/13 20:13:51;;;;;;;;;;;21.80;44.70;;;;;;8330343;28;20267;-41
2022/11/13 20:17:52;;;;;;;;;;;21.80;44.60;;;;;;8330245;28;20004;-41
2022/11/13 20:21:52;;;;;;;;;;;21.80;44.70;;;;;;8329548;28;20020;-41
2022/11/13 20:26:00;;;;;;;;;;;21.80;44.70;;;;;;8330371;28;19956;-41
2022/11/13 20:30:00;;;;;;;;;;;21.80;44.70;;;;;;8330518;28;19932;-42
2022/11/13 20:34:01;;;;;;;;;;;21.90;44.80;;;;;;8329517;28;20247;-42
2022/11/13 20:38:01;;;;;;;;;;;21.80;44.70;;;;;;8330194;28;19917;-41
2022/11/13 20:42:02;;;;;;;;;;;21.90;44.80;;;;;;8328500;28;19964;-42
2022/11/13 20:46:03;;;;;;;;;;;21.90;44.70;;;;;;8329459;28;20267;-42
2022/11/13 20:50:04;;;;;;;;;;;21.90;44.60;;;;;;8329728;28;19925;-41
2022/11/13 20:54:04;;;;;;;;;;;21.90;44.60;;;;;;8329676;28;19917;-42
2022/11/13 20:58:04;;;;;;;;;;;21.90;44.60;;;;;;8329146;28;19917;-42
2022/11/13 21:02:05;;;;;;;;;;;21.90;44.60;;;;;;8328494;28;19913;-42
2022/11/13 21:06:06;;;;;;;;;;;21.90;44.60;;;;;;8329681;28;19949;-42
2022/11/13 21:10:06;;;;;;;;;;;21.90;44.60;;;;;;8329092;28;19928;-42
2022/11/13 21:14:10;;;;;;;;;;;21.90;44.60;;;;;;8329555;28;20370;-42
2022/11/13 21:18:10;;;;;;;;;;;21.90;44.60;;;;;;8329581;28;20435;-42
2022/11/13 21:22:11;;;;;;;;;;;21.90;44.60;;;;;;8328930;28;19917;-42
2022/11/13 21:26:12;;;;;;;;;;;21.90;44.70;;;;;;8329448;28;19967;-42
2022/11/13 21:30:12;;;;;;;;;;;21.90;44.60;;;;;;8328746;28;20369;-41
2022/11/13 21:34:13;;;;;;;;;;;21.80;44.50;;;;;;8333695;28;19917;-42
2022/11/13 21:38:13;;;;;;;;;;;21.80;44.50;;;;;;8334908;28;19928;-42
2022/11/13 21:42:14;;;;;;;;;;;21.80;44.50;;;;;;8334243;28;20015;-42
2022/11/13 21:46:14;;;;;;;;;;;21.70;44.40;;;;;;8334743;28;19939;-42
2022/11/13 21:50:15;;;;;;;;;;;21.70;44.40;;;;;;8334492;28;19925;-41
2022/11/13 21:54:15;;;;;;;;;;;21.60;44.50;;;;;;8333951;28;19917;-43
2022/11/13 21:58:16;;;;;;;;;;;21.60;44.40;;;;;;8334304;28;19975;-42
2022/11/13 22:02:16;;;;;;;;;;;21.60;44.40;;;;;;8334034;28;19917;-42
2022/11/13 22:06:17;;;;;;;;;;;21.50;44.40;;;;;;8333821;28;19922;-42
2022/11/13 22:10:17;;;;;;;;;;;21.50;44.40;;;;;;8333864;28;19937;-42
2022/11/13 22:14:18;;;;;;;;;;;21.50;44.40;;;;;;8333883;28;20425;-42
2022/11/13 22:18:18;;;;;;;;;;;21.50;44.50;;;;;;8333470;28;19949;-43
2022/11/13 22:22:19;;;;;;;;;;;21.40;44.50;;;;;;8333631;28;20004;-42
2022/11/13 22:26:20;;;;;;;;;;;21.40;44.60;;;;;;8333548;28;19920;-41
2022/11/13 22:30:20;;;;;;;;;;;21.40;44.70;;;;;;8333025;28;19925;-41
2022/11/13 22:34:21;;;;;;;;;;;21.30;44.70;;;;;;8333399;28;20004;-42
2022/11/13 22:38:21;;;;;;;;;;;21.30;44.80;;;;;;8333286;28;19917;-43
2022/11/13 22:42:21;;;;;;;;;;;21.20;44.80;;;;;;8332293;28;19917;-42
2022/11/13 22:46:23;;;;;;;;;;;21.20;44.90;;;;;;8333007;28;19927;-42
2022/11/13 22:50:24;;;;;;;;;;;21.20;44.90;;;;;;8332478;28;19925;-42
2022/11/13 22:54:24;;;;;;;;;;;21.10;45.00;;;;;;8332151;28;19924;-42
2022/11/13 22:58:26;;;;;;;;;;;21.10;45.00;;;;;;8332457;28;20293;-42
2022/11/13 23:02:26;;;;;;;;;;;21.10;45.10;;;;;;8315754;28;19918;-41
2022/11/13 23:06:28;;;;;;;;;;;21.00;45.10;;;;;;8332162;28;20389;-40
2022/11/13 23:10:29;;;;;;;;;;;21.00;45.10;;;;;;8332034;28;20340;-42
2022/11/13 23:14:29;;;;;;;;;;;21.00;45.20;;;;;;8332097;28;19918;-42
2022/11/13 23:18:30;;;;;;;;;;;20.90;45.10;;;;;;8331491;28;19924;-42
2022/11/13 23:22:30;;;;;;;;;;;20.90;45.10;;;;;;8331899;28;19917;-42
2022/11/13 23:26:31;;;;;;;;;;;20.90;45.30;;;;;;8331751;28;19913;-42